createdAt,value
2023-04-15T00:00:00.748Z,8.99
2023-04-15T00:01:00.745Z,8.93
2023-04-15T00:02:00.800Z,8.89
2023-04-15T00:03:00.747Z,8.77
2023-04-15T00:04:00.782Z,8.72
2023-04-15T00:05:00.708Z,8.63
2023-04-15T00:06:00.642Z,8.56
2023-04-15T00:07:00.646Z,8.55
2023-04-15T00:08:00.618Z,8.50
2023-04-15T00:09:01.008Z,8.46
2023-04-15T00:10:00.602Z,8.37
2023-04-15T00:11:00.616Z,8.34
2023-04-15T00:12:00.596Z,8.38
2023-04-15T00:13:00.831Z,8.52
2023-04-15T00:14:00.589Z,8.63
2023-04-15T00:15:00.554Z,8.74
2023-04-15T00:16:00.548Z,8.78
2023-04-15T00:17:00.621Z,8.81
2023-04-15T00:18:00.670Z,8.85
2023-04-15T00:19:00.741Z,8.78
2023-04-15T00:20:00.513Z,8.74
2023-04-15T00:21:00.482Z,8.68
2023-04-15T00:22:00.494Z,8.60
2023-04-15T00:23:00.472Z,8.55
2023-04-15T00:24:00.507Z,8.49
2023-04-15T00:25:00.500Z,8.44
2023-04-15T00:26:00.449Z,8.39
2023-04-15T00:27:00.509Z,8.35
2023-04-15T00:28:00.440Z,8.28
2023-04-15T00:29:00.577Z,8.28
2023-04-15T00:30:00.456Z,8.28
2023-04-15T00:31:00.472Z,8.23
2023-04-15T00:32:00.413Z,8.20
2023-04-15T00:33:00.395Z,8.24
2023-04-15T00:34:00.409Z,8.23
2023-04-15T00:35:00.357Z,8.21
2023-04-15T00:36:00.364Z,8.19
2023-04-15T00:37:00.365Z,8.24
2023-04-15T00:38:00.325Z,8.31
2023-04-15T00:39:00.569Z,8.28
2023-04-15T00:40:00.369Z,8.20
2023-04-15T00:41:00.335Z,8.14
2023-04-15T00:42:00.294Z,8.14
2023-04-15T00:43:00.309Z,8.09
2023-04-15T00:44:00.263Z,8.10
2023-04-15T00:45:00.274Z,8.13
2023-04-15T00:46:00.373Z,8.17
2023-04-15T00:47:00.273Z,8.35
2023-04-15T00:48:00.389Z,8.55
2023-04-15T00:49:00.403Z,8.62
2023-04-15T00:50:00.249Z,8.63
2023-04-15T00:51:00.500Z,8.63
2023-04-15T00:52:00.223Z,8.56
2023-04-15T00:53:00.171Z,8.59
2023-04-15T00:54:00.201Z,8.62
2023-04-15T00:55:00.214Z,8.71
2023-04-15T00:56:00.149Z,8.68
2023-04-15T00:57:00.149Z,8.59
2023-04-15T00:58:00.154Z,8.52
2023-04-15T00:59:00.416Z,8.41
2023-04-15T01:00:00.171Z,8.31
2023-04-15T01:01:00.168Z,8.28
2023-04-15T01:02:00.186Z,8.32
2023-04-15T01:03:00.432Z,8.34
2023-04-15T01:04:00.315Z,8.31
2023-04-15T01:05:00.087Z,8.38
2023-04-15T01:06:02.124Z,8.39
2023-04-15T01:07:00.079Z,8.32
2023-04-15T01:08:00.093Z,8.28
2023-04-15T01:09:00.186Z,8.17
2023-04-15T01:10:00.076Z,8.21
2023-04-15T01:11:00.004Z,8.19
2023-04-15T01:12:00.101Z,8.19
2023-04-15T01:12:59.997Z,8.19
2023-04-15T01:14:00.018Z,8.21
2023-04-15T01:14:59.976Z,8.24
2023-04-15T01:15:59.981Z,8.29
2023-04-15T01:17:00.002Z,8.37
2023-04-15T01:18:00.006Z,8.35
2023-04-15T01:19:00.228Z,8.32
2023-04-15T01:19:59.995Z,8.17
2023-04-15T01:20:59.902Z,8.04
2023-04-15T01:21:59.907Z,7.94
2023-04-15T01:22:59.889Z,7.83
2023-04-15T01:23:59.994Z,7.74
2023-04-15T01:24:59.914Z,7.61
2023-04-15T01:26:00.121Z,7.47
2023-04-15T01:26:59.893Z,7.46
2023-04-15T01:27:59.934Z,7.40
2023-04-15T01:29:00.159Z,7.33
2023-04-15T01:29:59.861Z,7.28
2023-04-15T01:30:59.831Z,7.24
2023-04-15T01:31:59.828Z,7.36
2023-04-15T01:32:59.912Z,7.42
2023-04-15T01:33:59.801Z,7.55
2023-04-15T01:34:59.784Z,7.62
2023-04-15T01:35:59.783Z,7.77
2023-04-15T01:36:59.759Z,7.78
2023-04-15T01:37:59.756Z,7.81
2023-04-15T01:39:00.100Z,7.77
2023-04-15T01:39:59.784Z,7.71
2023-04-15T01:40:59.723Z,7.61
2023-04-15T01:41:59.742Z,7.50
2023-04-15T01:42:59.692Z,7.44
2023-04-15T01:43:59.843Z,7.42
2023-04-15T01:44:59.751Z,7.36
2023-04-15T01:45:59.674Z,7.34
2023-04-15T01:47:00.241Z,7.29
2023-04-15T01:47:59.716Z,7.31
2023-04-15T01:48:59.876Z,7.28
2023-04-15T01:49:59.786Z,7.26
2023-04-15T01:50:59.650Z,7.28
2023-04-15T01:51:59.632Z,7.28
2023-04-15T01:52:59.639Z,7.40
2023-04-15T01:53:59.591Z,7.54
2023-04-15T01:54:59.586Z,7.69
2023-04-15T01:55:59.678Z,7.87
2023-04-15T01:56:59.591Z,8.10
2023-04-15T01:57:59.578Z,8.19
2023-04-15T01:58:59.781Z,8.16
2023-04-15T01:59:59.584Z,8.05
2023-04-15T02:00:59.552Z,7.98
2023-04-15T02:01:59.513Z,7.84
2023-04-15T02:02:59.600Z,7.74
2023-04-15T02:03:59.619Z,7.69
2023-04-15T02:04:59.590Z,7.68
2023-04-15T02:05:59.588Z,7.66
2023-04-15T02:06:59.442Z,7.58
2023-04-15T02:07:59.470Z,7.54
2023-04-15T02:08:59.596Z,7.52
2023-04-15T02:09:59.490Z,7.43
2023-04-15T02:10:59.414Z,7.36
2023-04-15T02:11:59.447Z,7.33
2023-04-15T02:12:59.422Z,7.28
2023-04-15T02:13:59.401Z,7.26
2023-04-15T02:14:59.366Z,7.25
2023-04-15T02:15:59.414Z,7.29
2023-04-15T02:16:59.485Z,7.36
2023-04-15T02:17:59.393Z,7.49
2023-04-15T02:18:59.501Z,7.54
2023-04-15T02:19:59.320Z,7.60
2023-04-15T02:20:59.354Z,7.64
2023-04-15T02:21:59.307Z,7.69
2023-04-15T02:22:59.339Z,7.60
2023-04-15T02:23:59.325Z,7.54
2023-04-15T02:24:59.354Z,7.36
2023-04-15T02:25:59.279Z,7.36
2023-04-15T02:26:59.264Z,7.42
2023-04-15T02:27:59.251Z,7.57
2023-04-15T02:28:59.473Z,7.71
2023-04-15T02:29:59.235Z,7.71
2023-04-15T02:30:59.237Z,7.68
2023-04-15T02:31:59.290Z,7.64
2023-04-15T02:32:59.202Z,7.50
2023-04-15T02:33:59.343Z,7.39
2023-04-15T02:34:59.268Z,7.40
2023-04-15T02:35:59.202Z,7.36
2023-04-15T02:36:59.241Z,7.33
2023-04-15T02:37:59.166Z,7.33
2023-04-15T02:38:59.254Z,7.29
2023-04-15T02:39:59.145Z,7.34
2023-04-15T02:40:59.142Z,7.44
2023-04-15T02:41:59.113Z,7.58
2023-04-15T02:42:59.146Z,7.69
2023-04-15T02:43:59.105Z,7.83
2023-04-15T02:44:59.134Z,7.92
2023-04-15T02:45:59.385Z,8.01
2023-04-15T02:46:59.070Z,8.14
2023-04-15T02:47:59.092Z,8.19
2023-04-15T02:48:59.304Z,8.26
2023-04-15T02:49:59.101Z,8.28
2023-04-15T02:50:59.092Z,8.13
2023-04-15T02:51:59.025Z,7.91
2023-04-15T02:52:59.057Z,7.84
2023-04-15T02:53:59.023Z,7.80
2023-04-15T02:54:59.031Z,7.66
2023-04-15T02:55:59.015Z,7.55
2023-04-15T02:56:59.049Z,7.40
2023-04-15T02:57:58.958Z,7.33
2023-04-15T02:58:59.042Z,7.21
2023-04-15T02:59:58.933Z,7.16
2023-04-15T03:00:58.987Z,7.15
2023-04-15T03:01:58.942Z,7.13
2023-04-15T03:02:59.099Z,7.15
2023-04-15T03:03:59.098Z,7.18
2023-04-15T03:04:59.003Z,7.24
2023-04-15T03:05:58.876Z,7.31
2023-04-15T03:06:58.884Z,7.39
2023-04-15T03:07:58.865Z,7.37
2023-04-15T03:08:59.023Z,7.46
2023-04-15T03:09:58.825Z,7.44
2023-04-15T03:10:58.813Z,7.55
2023-04-15T03:11:58.827Z,7.54
2023-04-15T03:12:58.798Z,7.46
2023-04-15T03:13:58.842Z,7.34
2023-04-15T03:14:59.705Z,7.29
2023-04-15T03:15:58.845Z,7.19
2023-04-15T03:16:58.785Z,7.07
2023-04-15T03:17:58.845Z,7.03
2023-04-15T03:18:58.817Z,6.99
2023-04-15T03:19:58.778Z,7.07
2023-04-15T03:20:58.704Z,7.15
2023-04-15T03:21:58.703Z,7.22
2023-04-15T03:22:58.686Z,7.25
2023-04-15T03:23:58.728Z,7.26
2023-04-15T03:24:58.771Z,7.26
2023-04-15T03:25:58.712Z,7.21
2023-04-15T03:26:58.662Z,7.15
2023-04-15T03:27:58.683Z,7.08
2023-04-15T03:28:58.750Z,7.11
2023-04-15T03:29:58.643Z,7.07
2023-04-15T03:30:58.803Z,6.99
2023-04-15T03:31:58.643Z,6.88
2023-04-15T03:32:58.674Z,6.82
2023-04-15T03:33:58.616Z,6.81
2023-04-15T03:34:58.592Z,6.83
2023-04-15T03:35:58.556Z,6.79
2023-04-15T03:36:58.564Z,6.78
2023-04-15T03:37:58.538Z,6.83
2023-04-15T03:38:58.860Z,6.92
2023-04-15T03:39:58.539Z,6.93
2023-04-15T03:40:58.501Z,6.88
2023-04-15T03:41:58.503Z,6.81
2023-04-15T03:42:58.533Z,6.82
2023-04-15T03:43:58.527Z,6.78
2023-04-15T03:44:58.504Z,6.64
2023-04-15T03:46:00.222Z,6.63
2023-04-15T03:46:58.446Z,6.78
2023-04-15T03:48:11.301Z,6.83
2023-04-15T03:48:58.471Z,6.82
2023-04-15T03:49:58.442Z,6.81
2023-04-15T03:50:58.402Z,6.85
2023-04-15T03:51:58.402Z,7.00
2023-04-15T03:52:58.404Z,7.16
2023-04-15T03:53:58.413Z,7.19
2023-04-15T03:54:58.395Z,7.31
2023-04-15T03:55:58.375Z,7.46
2023-04-15T03:56:58.349Z,7.55
2023-04-15T03:57:58.377Z,7.71
2023-04-15T03:58:58.416Z,7.74
2023-04-15T03:59:58.480Z,7.78
2023-04-15T04:00:58.321Z,7.71
2023-04-15T04:01:58.517Z,7.71
2023-04-15T04:02:58.494Z,7.66
2023-04-15T04:03:58.353Z,7.62
2023-04-15T04:04:58.243Z,7.66
2023-04-15T04:05:58.310Z,7.61
2023-04-15T04:06:58.234Z,7.58
2023-04-15T04:07:58.182Z,7.57
2023-04-15T04:08:58.227Z,7.57
2023-04-15T04:09:58.239Z,7.49
2023-04-15T04:10:58.180Z,7.37
2023-04-15T04:11:58.211Z,7.21
2023-04-15T04:12:58.126Z,7.13
2023-04-15T04:13:58.130Z,7.13
2023-04-15T04:14:58.143Z,7.08
2023-04-15T04:15:58.217Z,6.96
2023-04-15T04:16:58.300Z,6.81
2023-04-15T04:17:58.150Z,6.64
2023-04-15T04:18:58.145Z,6.57
2023-04-15T04:19:58.080Z,6.52
2023-04-15T04:20:58.086Z,6.49
2023-04-15T04:21:58.062Z,6.47
2023-04-15T04:22:58.039Z,6.38
2023-04-15T04:23:58.050Z,6.30
2023-04-15T04:24:58.042Z,6.24
2023-04-15T04:25:58.018Z,6.24
2023-04-15T04:26:58.014Z,6.38
2023-04-15T04:27:58.104Z,6.50
2023-04-15T04:28:58.029Z,6.63
2023-04-15T04:29:57.974Z,6.79
2023-04-15T04:30:57.979Z,6.85
2023-04-15T04:31:57.980Z,6.86
2023-04-15T04:32:58.985Z,6.86
2023-04-15T04:33:57.981Z,6.92
2023-04-15T04:34:57.946Z,7.01
2023-04-15T04:35:57.957Z,7.01
2023-04-15T04:36:57.913Z,6.97
2023-04-15T04:37:57.907Z,6.89
2023-04-15T04:38:57.938Z,6.89
2023-04-15T04:39:57.881Z,6.88
2023-04-15T04:40:57.871Z,6.79
2023-04-15T04:41:57.890Z,6.64
2023-04-15T04:42:58.113Z,6.56
2023-04-15T04:43:57.930Z,6.56
2023-04-15T04:44:57.911Z,6.63
2023-04-15T04:45:57.837Z,6.63
2023-04-15T04:46:57.796Z,6.61
2023-04-15T04:47:57.803Z,6.56
2023-04-15T04:48:57.809Z,6.47
2023-04-15T04:49:57.781Z,6.45
2023-04-15T04:50:57.798Z,6.37
2023-04-15T04:51:57.806Z,6.32
2023-04-15T04:52:57.749Z,6.34
2023-04-15T04:53:57.743Z,6.45
2023-04-15T04:54:57.729Z,6.63
2023-04-15T04:55:57.852Z,6.81
2023-04-15T04:56:57.789Z,6.89
2023-04-15T04:57:57.706Z,7.04
2023-04-15T04:58:57.721Z,7.16
2023-04-15T04:59:57.688Z,7.25
2023-04-15T05:00:57.682Z,7.28
2023-04-15T05:01:57.689Z,7.21
2023-04-15T05:02:57.871Z,7.15
2023-04-15T05:03:57.695Z,7.07
2023-04-15T05:04:57.615Z,6.93
2023-04-15T05:05:57.654Z,6.88
2023-04-15T05:06:57.591Z,6.89
2023-04-15T05:07:57.596Z,6.83
2023-04-15T05:08:57.612Z,6.82
2023-04-15T05:09:57.666Z,6.82
2023-04-15T05:10:57.656Z,6.82
2023-04-15T05:11:57.663Z,6.88
2023-04-15T05:12:57.527Z,6.97
2023-04-15T05:13:57.555Z,7.07
2023-04-15T05:14:57.549Z,7.04
2023-04-15T05:15:57.578Z,6.91
2023-04-15T05:16:57.533Z,6.74
2023-04-15T05:17:57.591Z,6.65
2023-04-15T05:18:57.497Z,6.56
2023-04-15T05:19:57.492Z,6.46
2023-04-15T05:20:57.499Z,6.38
2023-04-15T05:21:57.450Z,6.42
2023-04-15T05:22:57.474Z,6.46
2023-04-15T05:23:57.432Z,6.45
2023-04-15T05:24:57.439Z,6.37
2023-04-15T05:25:57.424Z,6.37
2023-04-15T05:26:57.427Z,6.35
2023-04-15T05:27:57.434Z,6.40
2023-04-15T05:28:57.389Z,6.56
2023-04-15T05:29:57.395Z,6.82
2023-04-15T05:30:57.419Z,7.03
2023-04-15T05:31:57.360Z,7.19
2023-04-15T05:32:57.409Z,7.31
2023-04-15T05:33:57.361Z,7.36
2023-04-15T05:34:57.333Z,7.36
2023-04-15T05:35:57.340Z,7.26
2023-04-15T05:36:57.300Z,7.18
2023-04-15T05:37:57.346Z,7.04
2023-04-15T05:38:57.339Z,6.89
2023-04-15T05:39:57.259Z,6.88
2023-04-15T05:40:57.974Z,6.79
2023-04-15T05:41:57.283Z,6.71
2023-04-15T05:42:57.265Z,6.68
2023-04-15T05:43:57.233Z,6.65
2023-04-15T05:44:57.243Z,6.64
2023-04-15T05:45:57.309Z,6.55
2023-04-15T05:46:57.220Z,6.52
2023-04-15T05:47:57.265Z,6.46
2023-04-15T05:48:57.315Z,6.40
2023-04-15T05:49:57.193Z,6.38
2023-04-15T05:50:57.231Z,6.34
2023-04-15T05:51:57.149Z,6.34
2023-04-15T05:52:57.161Z,6.37
2023-04-15T05:53:57.128Z,6.56
2023-04-15T05:54:57.109Z,6.68
2023-04-15T05:55:57.125Z,6.75
2023-04-15T05:56:57.121Z,6.78
2023-04-15T05:57:57.084Z,6.78
2023-04-15T05:58:57.095Z,6.82
2023-04-15T05:59:57.157Z,6.83
2023-04-15T06:00:57.062Z,6.86
2023-04-15T06:01:57.149Z,6.79
2023-04-15T06:02:57.158Z,6.83
2023-04-15T06:03:57.199Z,7.01
2023-04-15T06:04:57.103Z,7.10
2023-04-15T06:05:57.031Z,7.21
2023-04-15T06:06:57.018Z,7.34
2023-04-15T06:07:57.099Z,7.47
2023-04-15T06:08:57.154Z,7.49
2023-04-15T06:09:56.955Z,7.47
2023-04-15T06:10:56.962Z,7.40
2023-04-15T06:11:57.052Z,7.34
2023-04-15T06:12:56.972Z,7.36
2023-04-15T06:13:56.936Z,7.34
2023-04-15T06:14:58.944Z,7.37
2023-04-15T06:15:56.934Z,7.31
2023-04-15T06:16:56.909Z,7.33
2023-04-15T06:17:57.009Z,7.37
2023-04-15T06:18:56.960Z,7.34
2023-04-15T06:19:56.876Z,7.26
2023-04-15T06:20:56.906Z,7.16
2023-04-15T06:21:56.847Z,7.19
2023-04-15T06:22:56.854Z,7.19
2023-04-15T06:23:56.858Z,7.28
2023-04-15T06:24:56.835Z,7.33
2023-04-15T06:25:57.324Z,7.33
2023-04-15T06:26:56.799Z,7.33
2023-04-15T06:27:56.814Z,7.29
2023-04-15T06:28:56.837Z,7.36
2023-04-15T06:29:56.765Z,7.40
2023-04-15T06:30:56.797Z,7.37
2023-04-15T06:31:56.815Z,7.31
2023-04-15T06:32:56.811Z,7.29
2023-04-15T06:33:56.783Z,7.36
2023-04-15T06:34:56.799Z,7.43
2023-04-15T06:35:56.707Z,7.42
2023-04-15T06:36:56.701Z,7.29
2023-04-15T06:37:56.739Z,7.21
2023-04-15T06:38:56.691Z,7.19
2023-04-15T06:39:56.733Z,7.18
2023-04-15T06:40:56.702Z,7.16
2023-04-15T06:41:56.677Z,7.24
2023-04-15T06:42:56.661Z,7.24
2023-04-15T06:43:56.660Z,7.24
2023-04-15T06:44:56.635Z,7.19
2023-04-15T06:45:57.225Z,7.19
2023-04-15T06:46:56.617Z,7.29
2023-04-15T06:47:56.661Z,7.26
2023-04-15T06:48:56.592Z,7.31
2023-04-15T06:49:56.583Z,7.36
2023-04-15T06:50:56.600Z,7.42
2023-04-15T06:51:56.575Z,7.42
2023-04-15T06:52:56.555Z,7.55
2023-04-15T06:53:56.529Z,7.69
2023-04-15T06:54:56.521Z,7.87
2023-04-15T06:55:56.526Z,7.95
2023-04-15T06:56:56.588Z,8.21
2023-04-15T06:57:56.510Z,8.55
2023-04-15T06:58:56.493Z,8.92
2023-04-15T06:59:56.484Z,9.26
2023-04-15T07:00:56.469Z,9.52
2023-04-15T07:01:56.500Z,9.72
2023-04-15T07:02:56.513Z,9.77
2023-04-15T07:03:56.442Z,9.69
2023-04-15T07:04:56.480Z,9.70
2023-04-15T07:05:56.420Z,9.72
2023-04-15T07:06:56.506Z,9.55
2023-04-15T07:07:56.407Z,9.33
2023-04-15T07:08:56.413Z,9.30
2023-04-15T07:09:56.362Z,9.37
2023-04-15T07:10:56.385Z,9.47
2023-04-15T07:11:56.373Z,9.52
2023-04-15T07:12:56.372Z,9.66
2023-04-15T07:13:56.380Z,9.78
2023-04-15T07:14:56.417Z,9.75
2023-04-15T07:15:56.314Z,9.81
2023-04-15T07:16:56.533Z,9.80
2023-04-15T07:17:56.426Z,9.81
2023-04-15T07:18:56.327Z,9.81
2023-04-15T07:19:56.266Z,9.93
2023-04-15T07:20:56.552Z,9.96
2023-04-15T07:21:56.265Z,10.03
2023-04-15T07:22:56.260Z,10.05
2023-04-15T07:23:56.270Z,9.93
2023-04-15T07:24:56.308Z,9.88
2023-04-15T07:25:56.211Z,9.96
2023-04-15T07:26:56.861Z,10.05
2023-04-15T07:27:56.227Z,10.10
2023-04-15T07:28:56.171Z,10.16
2023-04-15T07:29:56.300Z,10.23
2023-04-15T07:30:56.177Z,10.31
2023-04-15T07:31:56.216Z,10.46
2023-04-15T07:32:56.217Z,10.64
2023-04-15T07:33:56.120Z,10.72
2023-04-15T07:34:56.134Z,10.76
2023-04-15T07:35:56.100Z,10.82
2023-04-15T07:36:56.112Z,10.83
2023-04-15T07:37:56.089Z,10.85
2023-04-15T07:38:56.068Z,10.82
2023-04-15T07:39:56.057Z,10.78
2023-04-15T07:40:56.085Z,10.79
2023-04-15T07:41:56.042Z,10.80
2023-04-15T07:42:56.128Z,10.79
2023-04-15T07:43:56.100Z,10.76
2023-04-15T07:44:56.029Z,10.61
2023-04-15T07:45:56.070Z,10.58
2023-04-15T07:46:56.002Z,10.52
2023-04-15T07:47:56.022Z,10.42
2023-04-15T07:48:55.986Z,10.35
2023-04-15T07:49:56.002Z,10.39
2023-04-15T07:50:56.248Z,10.43
2023-04-15T07:51:55.940Z,10.54
2023-04-15T07:52:55.952Z,10.62
2023-04-15T07:53:56.507Z,10.70
2023-04-15T07:54:56.242Z,10.79
2023-04-15T07:55:55.958Z,10.86
2023-04-15T07:56:56.020Z,10.98
2023-04-15T07:57:55.883Z,11.08
2023-04-15T07:58:55.901Z,11.05
2023-04-15T07:59:55.855Z,11.15
2023-04-15T08:00:55.885Z,11.19
2023-04-15T08:01:55.873Z,11.28
2023-04-15T08:02:55.933Z,11.40
2023-04-15T08:03:56.022Z,11.46
2023-04-15T08:04:55.965Z,11.55
2023-04-15T08:05:55.925Z,11.64
2023-04-15T08:06:55.862Z,11.76
2023-04-15T08:07:55.830Z,11.89
2023-04-15T08:08:55.809Z,11.93
2023-04-15T08:09:55.745Z,11.96
2023-04-15T08:10:55.770Z,12.00
2023-04-15T08:11:55.756Z,12.04
2023-04-15T08:12:55.749Z,12.11
2023-04-15T08:13:55.816Z,12.14
2023-04-15T08:14:55.704Z,12.23
2023-04-15T08:15:55.716Z,12.26
2023-04-15T08:16:55.762Z,12.26
2023-04-15T08:17:55.760Z,12.22
2023-04-15T08:18:55.661Z,12.22
2023-04-15T08:19:55.793Z,12.22
2023-04-15T08:20:55.709Z,12.23
2023-04-15T08:21:55.696Z,12.23
2023-04-15T08:22:55.640Z,12.14
2023-04-15T08:23:55.688Z,12.11
2023-04-15T08:24:55.654Z,12.10
2023-04-15T08:25:55.609Z,12.08
2023-04-15T08:26:55.878Z,12.04
2023-04-15T08:27:55.569Z,12.00
2023-04-15T08:28:55.568Z,12.05
2023-04-15T08:29:55.547Z,12.07
2023-04-15T08:30:55.545Z,12.11
2023-04-15T08:31:55.618Z,12.10
2023-04-15T08:32:55.608Z,12.10
2023-04-15T08:33:55.604Z,12.10
2023-04-15T08:34:55.526Z,12.05
2023-04-15T08:35:55.492Z,11.97
2023-04-15T08:36:55.480Z,11.93
2023-04-15T08:37:55.508Z,11.93
2023-04-15T08:38:55.490Z,12.03
2023-04-15T08:39:55.468Z,12.14
2023-04-15T08:40:55.663Z,12.26
2023-04-15T08:41:55.449Z,12.40
2023-04-15T08:42:55.417Z,12.58
2023-04-15T08:43:55.463Z,12.72
2023-04-15T08:44:55.417Z,12.83
2023-04-15T08:45:55.406Z,12.96
2023-04-15T08:46:55.422Z,13.11
2023-04-15T08:47:55.439Z,13.21
2023-04-15T08:48:55.428Z,13.32
2023-04-15T08:49:55.346Z,13.43
2023-04-15T08:50:55.420Z,13.47
2023-04-15T08:51:55.374Z,13.36
2023-04-15T08:52:55.367Z,13.26
2023-04-15T08:53:55.358Z,13.14
2023-04-15T08:54:55.322Z,13.06
2023-04-15T08:55:55.295Z,13.09
2023-04-15T08:56:55.338Z,13.16
2023-04-15T08:57:55.299Z,13.23
2023-04-15T08:58:55.337Z,13.35
2023-04-15T08:59:55.304Z,13.45
2023-04-15T09:00:55.353Z,13.49
2023-04-15T09:01:55.342Z,13.49
2023-04-15T09:02:55.352Z,13.51
2023-04-15T09:03:55.431Z,13.57
2023-04-15T09:04:55.282Z,13.60
2023-04-15T09:05:55.398Z,13.71
2023-04-15T09:06:55.278Z,13.79
2023-04-15T09:07:55.263Z,13.83
2023-04-15T09:08:55.337Z,13.91
2023-04-15T09:09:55.258Z,13.94
2023-04-15T09:10:55.297Z,13.94
2023-04-15T09:11:55.241Z,13.83
2023-04-15T09:12:55.109Z,13.78
2023-04-15T09:13:55.156Z,13.76
2023-04-15T09:14:55.108Z,13.73
2023-04-15T09:15:55.262Z,13.72
2023-04-15T09:16:55.214Z,13.72
2023-04-15T09:17:55.115Z,13.67
2023-04-15T09:18:55.109Z,13.72
2023-04-15T09:19:55.078Z,13.68
2023-04-15T09:20:55.138Z,13.71
2023-04-15T09:21:57.311Z,13.76
2023-04-15T09:22:55.047Z,13.80
2023-04-15T09:23:55.014Z,13.78
2023-04-15T09:24:55.011Z,13.78
2023-04-15T09:25:55.012Z,13.79
2023-04-15T09:26:54.987Z,13.86
2023-04-15T09:27:55.000Z,13.83
2023-04-15T09:28:54.963Z,13.79
2023-04-15T09:29:54.957Z,13.71
2023-04-15T09:30:55.216Z,13.71
2023-04-15T09:31:54.930Z,13.68
2023-04-15T09:32:54.964Z,13.76
2023-04-15T09:33:54.943Z,13.83
2023-04-15T09:34:54.892Z,13.93
2023-04-15T09:35:54.892Z,14.01
2023-04-15T09:36:54.947Z,14.12
2023-04-15T09:37:54.973Z,14.15
2023-04-15T09:38:54.874Z,14.11
2023-04-15T09:39:54.885Z,14.09
2023-04-15T09:40:54.825Z,13.93
2023-04-15T09:41:54.847Z,13.86
2023-04-15T09:42:54.933Z,13.80
2023-04-15T09:43:54.845Z,13.79
2023-04-15T09:44:54.806Z,13.83
2023-04-15T09:45:54.870Z,13.96
2023-04-15T09:46:54.872Z,13.94
2023-04-15T09:47:56.804Z,14.00
2023-04-15T09:48:54.764Z,14.08
2023-04-15T09:49:54.826Z,14.15
2023-04-15T09:50:54.772Z,14.22
2023-04-15T09:52:04.390Z,14.31
2023-04-15T09:52:54.791Z,14.37
2023-04-15T09:53:54.733Z,14.49
2023-04-15T09:54:54.679Z,14.53
2023-04-15T09:55:54.798Z,14.59
2023-04-15T09:56:54.682Z,14.64
2023-04-15T09:57:54.682Z,14.66
2023-04-15T09:58:54.679Z,14.74
2023-04-15T09:59:54.660Z,14.86
2023-04-15T10:00:54.646Z,14.92
2023-04-15T10:01:54.722Z,14.79
2023-04-15T10:02:54.819Z,14.64
2023-04-15T10:03:54.683Z,14.66
2023-04-15T10:04:54.607Z,14.59
2023-04-15T10:05:54.642Z,14.66
2023-04-15T10:06:54.591Z,14.70
2023-04-15T10:07:54.599Z,14.74
2023-04-15T10:08:54.535Z,14.66
2023-04-15T10:09:54.570Z,14.55
2023-04-15T10:10:54.642Z,14.59
2023-04-15T10:11:54.582Z,14.58
2023-04-15T10:12:54.532Z,14.64
2023-04-15T10:13:54.515Z,14.61
2023-04-15T10:14:54.491Z,14.58
2023-04-15T10:15:54.625Z,14.58
2023-04-15T10:16:54.494Z,14.58
2023-04-15T10:17:54.545Z,14.59
2023-04-15T10:18:54.464Z,14.53
2023-04-15T10:19:54.466Z,14.27
2023-04-15T10:20:54.486Z,14.16
2023-04-15T10:21:54.485Z,14.22
2023-04-15T10:22:54.425Z,14.28
2023-04-15T10:23:54.400Z,14.38
2023-04-15T10:24:54.415Z,14.51
2023-04-15T10:25:54.417Z,14.66
2023-04-15T10:26:54.366Z,14.73
2023-04-15T10:27:54.372Z,14.82
2023-04-15T10:28:54.383Z,14.78
2023-04-15T10:29:54.375Z,14.90
2023-04-15T10:30:54.396Z,14.73
2023-04-15T10:31:54.349Z,14.66
2023-04-15T10:32:54.421Z,14.78
2023-04-15T10:33:54.307Z,14.83
2023-04-15T10:34:54.749Z,14.79
2023-04-15T10:35:54.406Z,14.69
2023-04-15T10:36:54.309Z,14.64
2023-04-15T10:37:54.293Z,14.71
2023-04-15T10:38:54.250Z,14.83
2023-04-15T10:39:54.384Z,14.90
2023-04-15T10:40:54.261Z,14.93
2023-04-15T10:41:54.328Z,14.89
2023-04-15T10:42:54.302Z,14.71
2023-04-15T10:43:54.253Z,14.64
2023-04-15T10:44:54.239Z,14.58
2023-04-15T10:45:54.185Z,14.61
2023-04-15T10:46:54.415Z,14.66
2023-04-15T10:47:54.229Z,14.69
2023-04-15T10:48:54.163Z,14.66
2023-04-15T10:49:54.476Z,14.64
2023-04-15T10:50:54.138Z,14.67
2023-04-15T10:51:54.390Z,14.63
2023-04-15T10:52:54.171Z,14.58
2023-04-15T10:53:54.127Z,14.58
2023-04-15T10:54:54.075Z,14.59
2023-04-15T10:55:54.203Z,14.56
2023-04-15T10:56:54.144Z,14.58
2023-04-15T10:57:54.104Z,14.63
2023-04-15T10:58:54.072Z,14.64
2023-04-15T10:59:54.393Z,14.69
2023-04-15T11:00:54.137Z,14.67
2023-04-15T11:01:54.270Z,14.58
2023-04-15T11:02:54.227Z,14.52
2023-04-15T11:03:54.152Z,14.44
2023-04-15T11:04:55.070Z,14.33
2023-04-15T11:05:54.034Z,14.27
2023-04-15T11:06:53.972Z,14.30
2023-04-15T11:07:54.021Z,14.33
2023-04-15T11:08:53.957Z,14.30
2023-04-15T11:09:53.988Z,14.27
2023-04-15T11:10:53.922Z,14.26
2023-04-15T11:11:53.931Z,14.34
2023-04-15T11:12:53.966Z,14.36
2023-04-15T11:13:53.964Z,14.34
2023-04-15T11:14:53.963Z,14.40
2023-04-15T11:15:53.999Z,14.52
2023-04-15T11:16:53.931Z,14.61
2023-04-15T11:17:53.904Z,14.69
2023-04-15T11:18:54.927Z,14.66
2023-04-15T11:19:53.831Z,14.71
2023-04-15T11:20:53.816Z,14.77
2023-04-15T11:21:53.871Z,14.78
2023-04-15T11:23:13.937Z,14.73
2023-04-15T11:23:53.800Z,14.70
2023-04-15T11:24:53.789Z,14.70
2023-04-15T11:25:53.794Z,14.86
2023-04-15T11:26:53.852Z,15.03
2023-04-15T11:27:53.764Z,15.14
2023-04-15T11:28:53.808Z,15.20
2023-04-15T11:29:53.803Z,15.01
2023-04-15T11:30:53.768Z,14.96
2023-04-15T11:31:53.842Z,14.93
2023-04-15T11:32:53.748Z,14.83
2023-04-15T11:33:53.740Z,14.82
2023-04-15T11:34:53.834Z,14.74
2023-04-15T11:35:53.877Z,14.78
2023-04-15T11:36:53.681Z,14.74
2023-04-15T11:37:55.562Z,14.67
2023-04-15T11:38:53.753Z,14.56
2023-04-15T11:39:53.709Z,14.56
2023-04-15T11:40:53.728Z,14.59
2023-04-15T11:41:53.676Z,14.55
2023-04-15T11:42:55.879Z,14.56
2023-04-15T11:43:53.644Z,14.58
2023-04-15T11:44:53.707Z,14.59
2023-04-15T11:45:53.679Z,14.52
2023-04-15T11:46:53.617Z,14.45
2023-04-15T11:47:53.644Z,14.41
2023-04-15T11:48:53.614Z,14.44
2023-04-15T11:49:53.612Z,14.52
2023-04-15T11:50:53.627Z,14.52
2023-04-15T11:51:53.563Z,14.59
2023-04-15T11:52:53.636Z,14.56
2023-04-15T11:53:53.857Z,14.51
2023-04-15T11:54:53.549Z,14.48
2023-04-15T11:55:53.499Z,14.44
2023-04-15T11:56:53.632Z,14.45
2023-04-15T11:57:53.496Z,14.48
2023-04-15T11:58:53.459Z,14.56
2023-04-15T11:59:55.493Z,14.59
2023-04-15T12:00:53.480Z,14.52
2023-04-15T12:01:53.481Z,14.48
2023-04-15T12:02:53.648Z,14.49
2023-04-15T12:03:53.759Z,14.55
2023-04-15T12:04:53.488Z,14.59
2023-04-15T12:05:53.465Z,14.66
2023-04-15T12:06:53.594Z,14.74
2023-04-15T12:07:53.336Z,14.79
2023-04-15T12:08:53.617Z,14.90
2023-04-15T12:09:53.460Z,14.85
2023-04-15T12:10:53.356Z,14.78
2023-04-15T12:11:53.337Z,14.67
2023-04-15T12:12:53.287Z,14.73
2023-04-15T12:13:53.331Z,14.79
2023-04-15T12:14:53.528Z,14.89
2023-04-15T12:15:53.319Z,14.93
2023-04-15T12:16:53.344Z,14.95
2023-04-15T12:17:53.320Z,14.95
2023-04-15T12:18:53.470Z,14.87
2023-04-15T12:19:53.280Z,14.82
2023-04-15T12:20:53.332Z,14.64
2023-04-15T12:21:53.643Z,14.52
2023-04-15T12:22:53.260Z,14.49
2023-04-15T12:23:53.265Z,14.44
2023-04-15T12:24:53.219Z,14.40
2023-04-15T12:25:53.216Z,14.36
2023-04-15T12:26:53.338Z,14.31
2023-04-15T12:27:53.239Z,14.33
2023-04-15T12:28:53.235Z,14.23
2023-04-15T12:29:53.281Z,14.16
2023-04-15T12:30:53.146Z,14.15
2023-04-15T12:31:53.151Z,14.12
2023-04-15T12:32:53.164Z,13.97
2023-04-15T12:33:53.202Z,13.97
2023-04-15T12:34:53.102Z,13.96
2023-04-15T12:35:53.109Z,13.97
2023-04-15T12:36:53.123Z,13.96
2023-04-15T12:37:53.113Z,13.94
2023-04-15T12:38:53.059Z,14.00
2023-04-15T12:39:53.349Z,13.98
2023-04-15T12:40:53.057Z,14.00
2023-04-15T12:41:53.029Z,14.00
2023-04-15T12:42:53.054Z,13.96
2023-04-15T12:43:53.229Z,13.97
2023-04-15T12:44:53.058Z,13.86
2023-04-15T12:45:53.177Z,13.88
2023-04-15T12:46:53.808Z,13.88
2023-04-15T12:47:53.081Z,13.86
2023-04-15T12:48:52.969Z,13.88
2023-04-15T12:49:53.041Z,14.01
2023-04-15T12:50:52.940Z,13.97
2023-04-15T12:51:52.981Z,14.01
2023-04-15T12:52:52.900Z,14.03
2023-04-15T12:53:52.882Z,14.05
2023-04-15T12:54:53.095Z,14.13
2023-04-15T12:55:53.039Z,14.18
2023-04-15T12:56:52.861Z,14.33
2023-04-15T12:57:52.878Z,14.37
2023-04-15T12:58:52.864Z,14.33
2023-04-15T12:59:52.874Z,14.31
2023-04-15T13:00:52.964Z,14.40
2023-04-15T13:01:52.974Z,14.52
2023-04-15T13:02:52.870Z,14.48
2023-04-15T13:03:52.872Z,14.37
2023-04-15T13:04:52.869Z,14.21
2023-04-15T13:05:52.751Z,14.18
2023-04-15T13:06:52.805Z,14.12